Time;durP1;ratioP1;P1;durP2;ratioP2;P2;SDS_P1;SDS_P2;PMS_P1;PMS_P2;Temp;Humidity;BMP_temperature;BMP_pressure;BME280_temperature;BME280_humidity;BME280_pressure;Samples;Min_cycle;Max_cycle;Signal;HPM_P1;HPM_P2
2022/11/08 05:02:34;;;;;;;4.63;4.23;;;;;;;;;;5091555;23;20444;-87
2022/11/08 05:05:00;;;;;;;4.75;4.25;;;;;;;;;;5011977;28;20412;-87
2022/11/08 05:07:28;;;;;;;4.50;4.20;;;;;;;;;;4994513;28;20472;-86
2022/11/08 05:09:54;;;;;;;4.35;4.05;;;;;;;;;;5014388;28;20439;-88
2022/11/08 05:12:20;;;;;;;4.50;4.20;;;;;;;;;;5016079;28;20388;-87
2022/11/08 05:14:46;;;;;;;4.80;4.40;;;;;;;;;;5002866;28;20401;-87
2022/11/08 05:17:12;;;;;;;5.00;4.50;;;;;;;;;;5015849;28;20527;-87
2022/11/08 05:25:08;;;;;;;5.03;4.30;;;;;;;;;;5015717;28;20419;-86
2022/11/08 05:27:34;;;;;;;5.22;4.57;;;;;;;;;;5015643;28;20420;-87
2022/11/08 05:30:00;;;;;;;5.28;4.88;;;;;;;;;;5015458;28;20385;-86
2022/11/08 05:32:26;;;;;;;5.05;4.60;;;;;;;;;;5015255;28;20431;-87
2022/11/08 05:34:52;;;;;;;4.72;4.25;;;;;;;;;;5015041;28;20791;-88
2022/11/08 05:37:18;;;;;;;4.68;4.10;;;;;;;;;;5015432;28;20384;-88
2022/11/08 05:39:44;;;;;;;5.00;4.53;;;;;;;;;;5014734;28;20845;-89
2022/11/08 05:42:10;;;;;;;5.57;5.18;;;;;;;;;;5016465;28;20385;-89
2022/11/08 05:44:36;;;;;;;6.40;5.90;;;;;;;;;;5015386;28;20523;-87
2022/11/08 05:47:02;;;;;;;6.27;5.67;;;;;;;;;;5015214;28;20900;-88
2022/11/08 05:49:28;;;;;;;5.60;5.20;;;;;;;;;;5014981;28;20384;-89
2022/11/08 05:51:54;;;;;;;4.90;4.50;;;;;;;;;;5014930;28;20504;-86
2022/11/08 05:54:20;;;;;;;5.10;4.70;;;;;;;;;;5015100;28;20381;-87
2022/11/08 05:56:46;;;;;;;5.18;4.65;;;;;;;;;;5014924;28;20866;-85
2022/11/08 05:59:12;;;;;;;5.80;5.30;;;;;;;;;;5012428;28;20386;-87
2022/11/08 06:01:38;;;;;;;5.22;4.82;;;;;;;;;;5006100;28;20408;-87
2022/11/08 06:04:04;;;;;;;5.57;4.80;;;;;;;;;;5014518;28;20499;-86
2022/11/08 06:06:30;;;;;;;5.25;4.75;;;;;;;;;;5014472;28;20381;-88
2022/11/08 06:08:56;;;;;;;5.45;4.97;;;;;;;;;;5013775;28;20381;-89
2022/11/08 06:11:23;;;;;;;5.23;4.73;;;;;;;;;;5013668;28;20400;-87
2022/11/08 06:13:50;;;;;;;5.25;4.85;;;;;;;;;;5014577;28;20738;-88
2022/11/08 06:16:17;;;;;;;6.03;5.43;;;;;;;;;;5014370;28;20389;-87
2022/11/08 06:18:43;;;;;;;5.63;5.13;;;;;;;;;;5013988;28;20435;-87
2022/11/08 06:21:13;;;;;;;4.68;4.32;;;;;;;;;;4995682;28;20889;-87
2022/11/08 06:23:39;;;;;;;4.80;4.40;;;;;;;;;;5014244;28;20486;-86
2022/11/08 06:26:06;;;;;;;5.30;4.80;;;;;;;;;;5000711;28;20877;-86
2022/11/08 06:28:32;;;;;;;5.15;4.65;;;;;;;;;;5014264;28;20908;-86
2022/11/08 06:30:59;;;;;;;4.47;4.13;;;;;;;;;;5013337;28;20416;-86
2022/11/08 06:33:25;;;;;;;5.22;4.70;;;;;;;;;;5011134;28;20861;-87
2022/11/08 06:35:51;;;;;;;12.65;11.48;;;;;;;;;;5024607;28;20437;-87
2022/11/08 06:38:17;;;;;;;7.80;7.10;;;;;;;;;;5014190;28;20754;-86
2022/11/08 06:40:43;;;;;;;6.00;5.50;;;;;;;;;;5014029;28;20392;-86
2022/11/08 06:43:10;;;;;;;6.00;5.40;;;;;;;;;;5013895;28;20384;-84
2022/11/08 06:45:36;;;;;;;5.63;5.13;;;;;;;;;;5013870;28;20416;-85
2022/11/08 06:48:03;;;;;;;5.80;5.20;;;;;;;;;;5013693;28;20552;-87
2022/11/08 06:50:30;;;;;;;6.07;5.25;;;;;;;;;;5013903;28;20383;-85
2022/11/08 06:52:56;;;;;;;5.70;5.05;;;;;;;;;;5013764;28;20377;-87
2022/11/08 06:55:22;;;;;;;6.35;5.63;;;;;;;;;;5013861;28;20486;-85
2022/11/08 06:57:48;;;;;;;6.68;6.07;;;;;;;;;;5022292;28;20886;-87
2022/11/08 07:00:15;;;;;;;6.40;5.85;;;;;;;;;;5013832;28;20404;-86
2022/11/08 07:02:43;;;;;;;10.27;8.25;;;;;;;;;;5013636;28;20401;-86
2022/11/08 07:05:09;;;;;;;7.95;6.93;;;;;;;;;;5013759;28;20421;-87
2022/11/08 07:07:35;;;;;;;9.20;7.47;;;;;;;;;;5014115;28;20393;-85
2022/11/08 07:10:01;;;;;;;11.85;8.85;;;;;;;;;;5013542;28;20377;-88
2022/11/08 07:12:27;;;;;;;11.55;9.82;;;;;;;;;;5013217;28;20853;-85
2022/11/08 07:14:53;;;;;;;12.45;10.75;;;;;;;;;;5013402;28;20392;-85
2022/11/08 07:17:19;;;;;;;10.20;9.17;;;;;;;;;;5013645;28;20413;-85
2022/11/08 07:19:45;;;;;;;10.55;9.55;;;;;;;;;;5013505;28;20741;-86
2022/11/08 07:22:10;;;;;;;14.35;9.82;;;;;;;;;;5020464;28;20387;-84
2022/11/08 07:24:36;;;;;;;10.17;8.40;;;;;;;;;;5015315;28;20423;-84
2022/11/08 07:27:02;;;;;;;11.30;8.80;;;;;;;;;;5000550;28;20403;-83
2022/11/08 07:29:28;;;;;;;11.50;6.90;;;;;;;;;;5013062;28;20754;-83
2022/11/08 07:31:54;;;;;;;19.42;9.05;;;;;;;;;;5012905;28;20388;-83
2022/11/08 07:34:20;;;;;;;10.95;7.80;;;;;;;;;;5012992;28;20395;-84
2022/11/08 07:36:46;;;;;;;7.67;6.80;;;;;;;;;;5020324;28;20390;-84
2022/11/08 07:39:12;;;;;;;8.70;7.25;;;;;;;;;;5021133;28;20476;-86
2022/11/08 07:41:38;;;;;;;14.35;8.60;;;;;;;;;;5012859;28;20468;-86
2022/11/08 07:44:04;;;;;;;11.45;9.80;;;;;;;;;;5013035;28;20419;-82
2022/11/08 07:46:30;;;;;;;10.85;9.77;;;;;;;;;;5012392;28;20376;-85
2022/11/08 07:48:56;;;;;;;14.97;11.93;;;;;;;;;;5012906;28;20738;-85
2022/11/08 07:51:22;;;;;;;13.75;11.52;;;;;;;;;;5014964;28;20385;-86
2022/11/08 07:53:48;;;;;;;11.93;10.73;;;;;;;;;;5019967;28;20453;-86
2022/11/08 07:56:14;;;;;;;12.25;11.05;;;;;;;;;;5020262;28;20412;-85
2022/11/08 07:58:40;;;;;;;12.25;11.00;;;;;;;;;;5021269;28;20385;-84
2022/11/08 08:01:06;;;;;;;11.90;10.70;;;;;;;;;;5024466;28;20418;-85
2022/11/08 08:03:32;;;;;;;11.45;10.38;;;;;;;;;;5019152;28;20412;-85
2022/11/08 08:05:58;;;;;;;12.02;10.90;;;;;;;;;;5015480;28;20770;-86
2022/11/08 08:08:24;;;;;;;15.48;13.32;;;;;;;;;;5014002;28;20416;-88
2022/11/08 08:10:50;;;;;;;14.38;12.98;;;;;;;;;;5016642;28;20406;-91
2022/11/08 08:13:16;;;;;;;15.68;13.52;;;;;;;;;;5022821;28;20459;-89
2022/11/08 08:15:42;;;;;;;14.32;12.85;;;;;;;;;;5022598;28;20422;-90
2022/11/08 08:18:10;;;;;;;13.73;12.43;;;;;;;;;;5025415;28;20415;-89
2022/11/08 08:20:37;;;;;;;14.25;12.77;;;;;;;;;;5023682;28;20458;-90
2022/11/08 08:23:03;;;;;;;15.18;13.45;;;;;;;;;;5022052;28;20479;-90
2022/11/08 08:25:32;;;;;;;14.48;12.70;;;;;;;;;;5026509;28;20433;-92
2022/11/08 08:28:04;;;;;;;15.45;13.80;;;;;;;;;;5024611;28;20444;-92
2022/11/08 08:30:30;;;;;;;14.70;13.10;;;;;;;;;;5023399;28;20852;-89
2022/11/08 08:33:08;;;;;;;15.45;13.55;;;;;;;;;;5017972;28;20395;-91
2022/11/08 08:35:37;;;;;;;17.15;15.45;;;;;;;;;;5014264;28;20396;-89
2022/11/08 08:38:04;;;;;;;16.10;14.00;;;;;;;;;;5015329;28;20389;-87
2022/11/08 08:40:30;;;;;;;20.95;17.17;;;;;;;;;;5012546;28;20419;-89
2022/11/08 08:43:00;;;;;;;28.08;20.83;;;;;;;;;;5012860;28;20389;-91
2022/11/08 08:45:26;;;;;;;22.75;17.50;;;;;;;;;;5015934;28;20440;-90
2022/11/08 08:47:53;;;;;;;17.38;15.48;;;;;;;;;;5024496;28;20395;-91
2022/11/08 08:50:19;;;;;;;20.67;17.20;;;;;;;;;;5017129;28;20376;-90
2022/11/08 08:52:45;;;;;;;23.98;18.55;;;;;;;;;;5001234;28;20907;-90
2022/11/08 08:55:11;;;;;;;17.98;15.80;;;;;;;;;;5016734;28;20798;-90
2022/11/08 08:57:37;;;;;;;17.30;15.50;;;;;;;;;;5029108;28;20391;-90
2022/11/08 09:00:03;;;;;;;19.48;17.13;;;;;;;;;;5020252;28;20420;-89
2022/11/08 09:02:29;;;;;;;18.60;16.15;;;;;;;;;;5015986;28;20897;-90
2022/11/08 09:04:55;;;;;;;17.80;15.90;;;;;;;;;;5014911;28;20443;-87
2022/11/08 09:07:21;;;;;;;20.40;16.27;;;;;;;;;;5015712;28;20387;-88
2022/11/08 09:09:47;;;;;;;21.23;18.30;;;;;;;;;;5007862;28;20385;-88
2022/11/08 09:12:13;;;;;;;19.30;17.17;;;;;;;;;;5015207;28;20388;-89
2022/11/08 09:14:39;;;;;;;19.42;17.13;;;;;;;;;;5015573;28;20449;-86
2022/11/08 09:17:05;;;;;;;20.90;17.48;;;;;;;;;;5015737;28;20892;-88
2022/11/08 09:19:31;;;;;;;19.97;17.87;;;;;;;;;;5017620;28;20396;-87
2022/11/08 09:21:57;;;;;;;19.30;17.15;;;;;;;;;;5015092;28;20443;-89
2022/11/08 09:24:23;;;;;;;16.90;15.23;;;;;;;;;;5015269;28;20409;-88
2022/11/08 09:26:49;;;;;;;16.37;14.73;;;;;;;;;;5015485;28;20393;-87
2022/11/08 09:29:15;;;;;;;18.27;16.27;;;;;;;;;;5015426;28;20388;-89
2022/11/08 09:31:41;;;;;;;18.60;16.38;;;;;;;;;;5015085;28;20381;-89
2022/11/08 09:34:07;;;;;;;18.42;16.52;;;;;;;;;;5015531;28;20428;-90
2022/11/08 09:36:33;;;;;;;15.95;14.45;;;;;;;;;;5019870;28;20391;-87
2022/11/08 09:38:59;;;;;;;14.90;13.40;;;;;;;;;;5027727;28;20441;-89
2022/11/08 09:41:31;;;;;;;14.80;13.40;;;;;;;;;;5026036;28;20877;-89
2022/11/08 09:43:57;;;;;;;16.40;14.73;;;;;;;;;;5022733;28;20406;-89
2022/11/08 09:46:59;;;;;;;16.15;14.55;;;;;;;;;;5025385;28;20465;-88
2022/11/08 09:49:29;;;;;;;18.08;15.57;;;;;;;;;;4966401;28;20408;-89
2022/11/08 09:51:55;;;;;;;16.67;14.98;;;;;;;;;;4996213;28;20451;-89
2022/11/08 09:54:27;;;;;;;19.33;16.80;;;;;;;;;;5015596;28;20389;-89
2022/11/08 09:56:54;;;;;;;19.95;16.75;;;;;;;;;;5022348;28;20798;-88
2022/11/08 09:59:23;;;;;;;18.42;16.48;;;;;;;;;;5014972;28;20381;-90
2022/11/08 10:01:49;;;;;;;18.60;16.63;;;;;;;;;;5014488;28;20405;-89
2022/11/08 10:04:16;;;;;;;19.37;17.27;;;;;;;;;;5014917;28;20417;-91
2022/11/08 10:07:01;;;;;;;18.83;16.70;;;;;;;;;;5014927;28;20477;-89
2022/11/08 10:09:45;;;;;;;18.60;16.70;;;;;;;;;;5014634;28;20460;-89
2022/11/08 10:12:20;;;;;;;19.05;17.15;;;;;;;;;;5014605;28;20381;-90
2022/11/08 10:14:58;;;;;;;22.33;18.40;;;;;;;;;;5015461;28;20380;-89
2022/11/08 10:17:28;;;;;;;19.23;17.30;;;;;;;;;;5014817;28;20471;-90
2022/11/08 10:19:57;;;;;;;19.08;17.02;;;;;;;;;;5014104;28;20475;-90
2022/11/08 10:22:38;;;;;;;20.08;17.98;;;;;;;;;;5014094;28;20868;-91
2022/11/08 10:25:24;;;;;;;19.42;17.42;;;;;;;;;;5011648;28;20825;-90
2022/11/08 10:27:52;;;;;;;18.98;16.98;;;;;;;;;;5014490;28;20881;-91
2022/11/08 10:30:22;;;;;;;18.58;16.67;;;;;;;;;;5012918;28;20389;-90
2022/11/08 10:32:50;;;;;;;16.38;14.73;;;;;;;;;;5027989;28;20796;-91
2022/11/08 10:35:16;;;;;;;16.98;15.13;;;;;;;;;;5024026;28;20451;-91
2022/11/08 10:37:43;;;;;;;16.88;15.07;;;;;;;;;;5018910;28;20403;-94
2022/11/08 10:40:18;;;;;;;15.82;14.25;;;;;;;;;;5019656;28;20484;-91
2022/11/08 10:42:52;;;;;;;15.30;13.85;;;;;;;;;;5014754;28;20937;-92
2022/11/08 10:45:18;;;;;;;14.38;12.98;;;;;;;;;;5015032;28;20409;-92
2022/11/08 10:47:45;;;;;;;13.60;12.32;;;;;;;;;;5021842;28;20435;-93
2022/11/08 10:50:17;;;;;;;13.88;12.48;;;;;;;;;;5014795;28;20388;-92
2022/11/08 10:52:48;;;;;;;13.77;12.45;;;;;;;;;;5122360;23;20804;-92
2022/11/08 10:55:27;;;;;;;14.95;13.20;;;;;;;;;;5034361;28;20383;-89
2022/11/08 10:57:53;;;;;;;15.02;13.55;;;;;;;;;;5031405;28;20469;-92
2022/11/08 11:03:12;;;;;;;14.07;12.67;;;;;;;;;;5014438;28;20397;-93
2022/11/08 11:05:42;;;;;;;13.05;11.77;;;;;;;;;;5012658;28;20465;-90
2022/11/08 11:08:08;;;;;;;11.73;10.73;;;;;;;;;;5014147;28;20376;-92
2022/11/08 11:10:36;;;;;;;12.68;11.50;;;;;;;;;;5014034;28;20783;-93
2022/11/08 11:13:05;;;;;;;12.00;10.80;;;;;;;;;;5014000;28;20373;-91
2022/11/08 11:15:32;;;;;;;11.35;10.40;;;;;;;;;;5018835;28;20418;-94
2022/11/08 11:17:58;;;;;;;10.90;9.95;;;;;;;;;;5040131;28;20410;-93
2022/11/08 11:20:25;;;;;;;10.77;9.85;;;;;;;;;;5025624;28;20385;-91
2022/11/08 11:22:52;;;;;;;11.00;9.90;;;;;;;;;;5016346;28;20389;-94
2022/11/08 11:25:21;;;;;;;11.10;10.10;;;;;;;;;;5018636;28;20387;-95
2022/11/08 11:27:50;;;;;;;9.32;8.50;;;;;;;;;;5015229;28;20427;-91
2022/11/08 11:30:27;;;;;;;9.20;8.32;;;;;;;;;;5013336;28;20396;-90
2022/11/08 11:33:02;;;;;;;9.35;8.38;;;;;;;;;;5013595;28;20726;-91
2022/11/08 11:35:33;;;;;;;5.82;5.25;;;;;;;;;;5013068;28;20419;-89
2022/11/08 11:38:00;;;;;;;5.30;4.90;;;;;;;;;;5014729;28;20385;-90
2022/11/08 11:40:34;;;;;;;5.22;4.72;;;;;;;;;;5029840;28;20377;-89
2022/11/08 11:43:13;;;;;;;6.10;5.07;;;;;;;;;;5029822;28;20417;-91
2022/11/08 11:45:51;;;;;;;6.78;5.35;;;;;;;;;;5032202;28;20385;-89
2022/11/08 11:48:20;;;;;;;6.25;5.65;;;;;;;;;;5034179;28;20415;-90
2022/11/08 11:50:49;;;;;;;7.07;5.63;;;;;;;;;;5024772;28;20413;-90
2022/11/08 11:53:17;;;;;;;6.32;5.70;;;;;;;;;;5015121;28;20433;-90
2022/11/08 11:56:19;;;;;;;6.70;6.10;;;;;;;;;;5018647;28;20457;-90
2022/11/08 11:59:04;;;;;;;6.80;6.20;;;;;;;;;;4971365;28;20738;-91
2022/11/08 12:01:48;;;;;;;6.70;6.10;;;;;;;;;;5010326;28;20790;-91
2022/11/08 12:04:33;;;;;;;5.45;5.05;;;;;;;;;;5013254;28;20400;-90
2022/11/08 12:07:01;;;;;;;5.55;5.05;;;;;;;;;;5013192;28;20381;-91
2022/11/08 12:09:32;;;;;;;5.60;5.07;;;;;;;;;;5013253;28;20742;-91
2022/11/08 12:12:11;;;;;;;5.75;5.00;;;;;;;;;;5014052;28;20401;-90
2022/11/08 12:14:56;;;;;;;5.85;5.28;;;;;;;;;;5021476;28;20421;-90
2022/11/08 12:17:22;;;;;;;5.88;5.28;;;;;;;;;;5013506;28;20372;-90
2022/11/08 12:19:51;;;;;;;5.90;5.40;;;;;;;;;;5015709;28;20459;-91
2022/11/08 12:22:41;;;;;;;5.23;4.83;;;;;;;;;;5019486;28;20457;-91
2022/11/08 12:25:19;;;;;;;5.60;5.10;;;;;;;;;;5004953;28;20845;-91
2022/11/08 12:27:50;;;;;;;5.68;5.10;;;;;;;;;;5019332;28;20409;-89
2022/11/08 12:30:19;;;;;;;5.50;5.00;;;;;;;;;;5009220;28;20436;-91
2022/11/08 12:32:54;;;;;;;5.45;4.95;;;;;;;;;;5014395;28;20749;-89
2022/11/08 12:35:28;;;;;;;5.50;5.00;;;;;;;;;;5017332;28;20758;-89
2022/11/08 12:38:00;;;;;;;4.70;4.20;;;;;;;;;;5016666;28;20377;-90
2022/11/08 12:40:46;;;;;;;4.63;4.22;;;;;;;;;;5016956;28;20430;-90
2022/11/08 12:43:15;;;;;;;4.75;4.30;;;;;;;;;;5017514;28;20424;-90
2022/11/08 12:45:51;;;;;;;6.10;5.10;;;;;;;;;;5017626;28;20471;-90
2022/11/08 12:48:26;;;;;;;6.40;4.45;;;;;;;;;;5017621;28;20385;-89
2022/11/08 12:51:18;;;;;;;4.80;4.40;;;;;;;;;;5004870;28;20384;-89
2022/11/08 12:53:50;;;;;;;4.85;4.35;;;;;;;;;;5016290;28;20440;-90
2022/11/08 12:56:21;;;;;;;4.80;4.35;;;;;;;;;;5024775;28;20375;-92
2022/11/08 12:58:51;;;;;;;6.05;4.85;;;;;;;;;;5019176;28;20416;-92
2022/11/08 13:01:19;;;;;;;4.90;4.50;;;;;;;;;;5017392;28;20504;-90
2022/11/08 13:03:45;;;;;;;5.18;4.68;;;;;;;;;;4999511;28;20420;-92
2022/11/08 13:06:16;;;;;;;5.40;4.22;;;;;;;;;;5018868;28;20389;-89
2022/11/08 13:08:55;;;;;;;5.55;4.45;;;;;;;;;;5018495;28;20377;-90
2022/11/08 13:11:41;;;;;;;4.60;4.00;;;;;;;;;;5017039;28;20379;-90
2022/11/08 13:14:15;;;;;;;5.18;4.28;;;;;;;;;;5009972;28;20466;-91
2022/11/08 13:16:42;;;;;;;4.05;3.70;;;;;;;;;;5017550;28;20467;-89
2022/11/08 13:19:26;;;;;;;4.65;3.88;;;;;;;;;;5017488;28;20392;-90
2022/11/08 13:21:52;;;;;;;3.58;3.28;;;;;;;;;;5019179;28;20384;-91
2022/11/08 13:24:18;;;;;;;3.97;3.57;;;;;;;;;;5018978;28;20471;-90
2022/11/08 13:26:44;;;;;;;4.60;3.70;;;;;;;;;;5018271;28;20790;-91
2022/11/08 13:29:16;;;;;;;5.18;3.72;;;;;;;;;;5016548;28;20381;-91
2022/11/08 13:31:58;;;;;;;4.43;4.00;;;;;;;;;;5016248;28;20432;-90
2022/11/08 13:34:24;;;;;;;4.43;3.85;;;;;;;;;;5016886;28;20437;-91
2022/11/08 13:36:50;;;;;;;5.85;3.47;;;;;;;;;;5016943;28;20381;-92
2022/11/08 13:39:16;;;;;;;3.42;3.13;;;;;;;;;;5016903;28;20388;-91
2022/11/08 13:41:59;;;;;;;3.43;2.87;;;;;;;;;;5017777;28;20389;-90
2022/11/08 13:44:44;;;;;;;3.83;3.33;;;;;;;;;;5016928;28;20380;-92
2022/11/08 13:47:28;;;;;;;3.70;3.30;;;;;;;;;;5017746;28;20399;-90
2022/11/08 13:50:14;;;;;;;3.53;3.08;;;;;;;;;;5016509;28;20432;-90
2022/11/08 13:52:45;;;;;;;4.45;3.30;;;;;;;;;;5015303;28;20440;-91
2022/11/08 13:55:40;;;;;;;3.60;3.30;;;;;;;;;;5018813;28;20464;-91
2022/11/08 13:58:26;;;;;;;4.60;3.60;;;;;;;;;;4971865;28;20948;-90
2022/11/08 14:00:52;;;;;;;3.50;3.05;;;;;;;;;;5003929;28;20372;-90
2022/11/08 14:03:33;;;;;;;5.20;3.50;;;;;;;;;;5016594;28;20416;-90
2022/11/08 14:06:02;;;;;;;4.18;3.78;;;;;;;;;;5005409;28;20385;-90
2022/11/08 14:08:30;;;;;;;5.00;3.45;;;;;;;;;;5014882;28;20440;-92
2022/11/08 14:10:59;;;;;;;7.75;4.50;;;;;;;;;;5015784;28;20392;-91
2022/11/08 14:13:25;;;;;;;4.90;3.77;;;;;;;;;;5014714;28;20388;-89
2022/11/08 14:15:55;;;;;;;5.50;4.68;;;;;;;;;;5014644;28;20412;-90
2022/11/08 14:18:28;;;;;;;4.57;4.10;;;;;;;;;;5014720;28;20391;-90
2022/11/08 14:20:54;;;;;;;4.33;3.77;;;;;;;;;;5029268;28;20379;-89
2022/11/08 14:23:22;;;;;;;5.97;4.05;;;;;;;;;;5014403;28;20385;-92
2022/11/08 14:25:48;;;;;;;5.25;4.40;;;;;;;;;;5014618;28;20420;-90
2022/11/08 14:28:24;;;;;;;4.97;4.20;;;;;;;;;;5014117;28;20861;-90
2022/11/08 14:30:50;;;;;;;4.70;4.20;;;;;;;;;;5019106;28;20392;-89
2022/11/08 14:33:18;;;;;;;9.97;8.40;;;;;;;;;;5014324;28;20479;-90
2022/11/08 14:36:01;;;;;;;7.00;5.17;;;;;;;;;;5014131;28;20503;-91
2022/11/08 14:38:28;;;;;;;8.15;6.07;;;;;;;;;;5014098;28;20381;-91
2022/11/08 14:41:01;;;;;;;6.10;5.50;;;;;;;;;;5013830;28;20384;-90
2022/11/08 14:43:27;;;;;;;5.80;5.20;;;;;;;;;;5013697;28;20746;-89
2022/11/08 14:45:56;;;;;;;4.97;4.38;;;;;;;;;;5013951;28;20890;-91
2022/11/08 14:48:26;;;;;;;6.55;4.90;;;;;;;;;;5014352;28;20468;-91
2022/11/08 14:51:03;;;;;;;8.20;4.78;;;;;;;;;;5013558;28;20903;-89
2022/11/08 14:53:30;;;;;;;4.30;3.85;;;;;;;;;;5013760;28;20892;-89
2022/11/08 14:56:02;;;;;;;7.13;4.10;;;;;;;;;;5017746;28;20406;-91
2022/11/08 14:58:28;;;;;;;5.60;4.30;;;;;;;;;;5017538;28;20395;-89
2022/11/08 15:00:54;;;;;;;6.25;4.47;;;;;;;;;;5013607;28;20385;-92
2022/11/08 15:03:20;;;;;;;8.45;6.78;;;;;;;;;;5013570;28;20460;-90
2022/11/08 15:05:53;;;;;;;8.27;5.63;;;;;;;;;;5013769;28;20468;-91
2022/11/08 15:08:31;;;;;;;5.45;4.13;;;;;;;;;;5013729;28;20798;-89
2022/11/08 15:11:02;;;;;;;6.97;4.53;;;;;;;;;;5013560;28;20787;-91
2022/11/08 15:13:29;;;;;;;6.40;4.50;;;;;;;;;;5015809;28;20408;-90
2022/11/08 15:15:58;;;;;;;5.00;4.28;;;;;;;;;;5013326;28;20428;-89
2022/11/08 15:18:28;;;;;;;10.40;5.97;;;;;;;;;;5013743;28;20542;-92
2022/11/08 15:20:55;;;;;;;9.35;7.18;;;;;;;;;;5013249;28;20925;-91
2022/11/08 15:23:42;;;;;;;12.13;8.00;;;;;;;;;;5010430;28;20390;-90
2022/11/08 15:26:34;;;;;;;51.80;30.30;;;;;;;;;;5013586;28;20387;-91
2022/11/08 15:29:02;;;;;;;40.15;23.17;;;;;;;;;;5012665;28;20485;-91
2022/11/08 15:31:30;;;;;;;16.83;12.07;;;;;;;;;;5012678;28;20405;-91
2022/11/08 15:33:56;;;;;;;24.42;14.52;;;;;;;;;;5020107;28;20437;-88
2022/11/08 15:36:30;;;;;;;64.23;40.20;;;;;;;;;;5032037;28;20377;-89
2022/11/08 15:38:56;;;;;;;95.38;58.55;;;;;;;;;;5029749;28;20389;-90
2022/11/08 15:41:33;;;;;;;80.25;49.20;;;;;;;;;;5032584;28;20379;-89
2022/11/08 15:44:11;;;;;;;79.18;50.35;;;;;;;;;;5026672;28;20396;-89
2022/11/08 15:46:37;;;;;;;80.10;50.57;;;;;;;;;;5019628;28;20392;-89
2022/11/08 15:49:35;;;;;;;74.50;48.75;;;;;;;;;;5015060;28;20420;-92
2022/11/08 15:52:03;;;;;;;73.60;47.45;;;;;;;;;;4991234;28;20444;-90
2022/11/08 15:54:29;;;;;;;67.53;43.65;;;;;;;;;;5013183;28;20444;-90
2022/11/08 15:56:55;;;;;;;62.72;42.90;;;;;;;;;;5021444;28;20790;-90
2022/11/08 15:59:27;;;;;;;114.07;78.73;;;;;;;;;;4991906;28;20934;-89
2022/11/08 16:01:57;;;;;;;89.00;64.60;;;;;;;;;;5009176;28;20388;-90
2022/11/08 16:04:23;;;;;;;70.25;50.83;;;;;;;;;;5012662;28;20443;-91
2022/11/08 16:06:50;;;;;;;71.70;53.23;;;;;;;;;;5012903;28;20481;-91
2022/11/08 16:09:16;;;;;;;65.32;48.17;;;;;;;;;;5012727;28;20396;-90
2022/11/08 16:11:44;;;;;;;53.97;41.30;;;;;;;;;;5014840;28;20387;-89
2022/11/08 16:14:13;;;;;;;48.05;37.95;;;;;;;;;;5012537;28;20503;-90
2022/11/08 16:16:39;;;;;;;30.47;25.43;;;;;;;;;;5012749;28;20387;-90
2022/11/08 16:19:10;;;;;;;29.88;23.63;;;;;;;;;;5012893;28;20392;-89
2022/11/08 16:21:36;;;;;;;22.73;15.75;;;;;;;;;;5012625;28;20373;-91
2022/11/08 16:24:02;;;;;;;33.08;21.77;;;;;;;;;;5014996;28;20373;-89
2022/11/08 16:26:28;;;;;;;31.03;18.10;;;;;;;;;;5012604;28;20467;-91
2022/11/08 16:28:54;;;;;;;10.32;8.95;;;;;;;;;;5012827;28;20391;-89
2022/11/08 16:31:20;;;;;;;17.00;11.80;;;;;;;;;;5012857;28;20475;-90
2022/11/08 16:33:46;;;;;;;14.40;11.43;;;;;;;;;;5012566;28;20392;-87
2022/11/08 16:36:17;;;;;;;14.10;10.73;;;;;;;;;;5012861;28;20469;-93
2022/11/08 16:38:47;;;;;;;19.52;9.55;;;;;;;;;;5026894;28;20412;-94
2022/11/08 16:41:13;;;;;;;15.93;8.80;;;;;;;;;;5016116;28;20384;-94
2022/11/08 16:43:39;;;;;;;19.38;9.90;;;;;;;;;;5018541;28;20392;-92
2022/11/08 16:46:06;;;;;;;25.33;12.43;;;;;;;;;;5015198;28;20493;-92
2022/11/08 16:48:32;;;;;;;16.38;9.80;;;;;;;;;;5022824;28;20388;-93
2022/11/08 16:51:00;;;;;;;17.25;10.40;;;;;;;;;;5016584;28;20508;-92
2022/11/08 16:53:28;;;;;;;23.63;15.88;;;;;;;;;;5015308;28;20386;-90
2022/11/08 16:55:55;;;;;;;22.38;13.65;;;;;;;;;;5016020;28;20410;-93
2022/11/08 16:58:21;;;;;;;33.42;22.20;;;;;;;;;;5010654;28;20448;-92
2022/11/08 17:00:47;;;;;;;19.50;17.10;;;;;;;;;;5015307;28;20385;-93
2022/11/08 17:03:17;;;;;;;18.25;15.48;;;;;;;;;;5014759;28;20416;-90
2022/11/08 17:05:43;;;;;;;13.73;12.23;;;;;;;;;;5002900;28;20400;-95
2022/11/08 17:08:09;;;;;;;13.32;11.80;;;;;;;;;;5019214;28;20876;-93
2022/11/08 17:10:35;;;;;;;16.65;12.63;;;;;;;;;;5033113;28;20383;-91
2022/11/08 17:13:01;;;;;;;15.77;9.85;;;;;;;;;;5017695;28;20858;-92
2022/11/08 17:15:28;;;;;;;20.08;13.60;;;;;;;;;;5020117;28;20416;-92
2022/11/08 17:17:54;;;;;;;18.33;13.32;;;;;;;;;;5020710;28;20390;-92
2022/11/08 17:20:21;;;;;;;17.83;13.35;;;;;;;;;;5026702;28;20385;-89
2022/11/08 17:22:47;;;;;;;18.20;13.65;;;;;;;;;;5015824;28;20395;-92
2022/11/08 17:25:15;;;;;;;15.93;12.82;;;;;;;;;;5014840;28;20398;-90
2022/11/08 17:27:41;;;;;;;13.45;12.02;;;;;;;;;;5015419;28;20393;-90
2022/11/08 17:30:07;;;;;;;14.52;11.35;;;;;;;;;;5015653;28;20381;-90
2022/11/08 17:32:34;;;;;;;10.43;7.70;;;;;;;;;;5014767;28;20451;-90
2022/11/08 17:35:00;;;;;;;6.28;4.95;;;;;;;;;;5014745;28;20408;-89
2022/11/08 17:37:26;;;;;;;7.35;5.68;;;;;;;;;;5015844;28;20420;-91
2022/11/08 17:39:54;;;;;;;7.18;5.13;;;;;;;;;;5014862;28;20377;-86
2022/11/08 17:42:20;;;;;;;8.82;4.90;;;;;;;;;;5014865;28;20469;-86
2022/11/08 17:44:46;;;;;;;6.03;4.88;;;;;;;;;;5014972;28;20460;-85
2022/11/08 17:47:12;;;;;;;8.93;4.90;;;;;;;;;;5014766;28;20925;-87
2022/11/08 17:49:38;;;;;;;7.97;5.15;;;;;;;;;;5014175;28;20409;-87
2022/11/08 17:52:04;;;;;;;5.57;4.38;;;;;;;;;;5016024;28;20404;-88
2022/11/08 17:54:30;;;;;;;7.68;5.47;;;;;;;;;;5031538;28;20414;-89
2022/11/08 17:56:57;;;;;;;10.68;5.13;;;;;;;;;;5030935;28;20379;-87
2022/11/08 17:59:23;;;;;;;6.43;5.00;;;;;;;;;;5025071;28;20415;-88
2022/11/08 18:01:49;;;;;;;10.65;5.53;;;;;;;;;;5014529;28;20377;-87
2022/11/08 18:04:15;;;;;;;7.65;5.45;;;;;;;;;;5028264;28;20387;-87
2022/11/08 18:06:41;;;;;;;8.65;6.40;;;;;;;;;;5030374;28;20387;-87
2022/11/08 18:09:08;;;;;;;7.28;6.28;;;;;;;;;;5026306;28;20376;-88
2022/11/08 18:11:34;;;;;;;10.47;8.40;;;;;;;;;;5027263;28;20383;-87
2022/11/08 18:14:00;;;;;;;10.98;8.90;;;;;;;;;;5018163;28;20452;-86
2022/11/08 18:16:28;;;;;;;13.33;8.80;;;;;;;;;;5023796;28;20388;-87
2022/11/08 18:18:54;;;;;;;10.67;8.87;;;;;;;;;;5015082;28;20419;-88
2022/11/08 18:21:21;;;;;;;10.25;9.15;;;;;;;;;;5029039;28;20855;-87
2022/11/08 18:23:47;;;;;;;10.45;9.35;;;;;;;;;;5032436;28;20402;-87
2022/11/08 18:26:14;;;;;;;10.18;9.18;;;;;;;;;;5029972;28;20404;-87
2022/11/08 18:28:40;;;;;;;10.02;8.45;;;;;;;;;;5027418;28;20407;-88
2022/11/08 18:31:14;;;;;;;13.27;11.88;;;;;;;;;;5023861;28;20422;-88
2022/11/08 18:33:40;;;;;;;13.90;12.40;;;;;;;;;;5019812;28;20768;-88
2022/11/08 18:36:14;;;;;;;18.17;12.23;;;;;;;;;;5016777;28;20515;-87
2022/11/08 18:38:44;;;;;;;15.30;12.48;;;;;;;;;;5016225;28;20944;-88
2022/11/08 18:41:11;;;;;;;14.13;12.63;;;;;;;;;;5025075;28;20379;-87
2022/11/08 18:43:37;;;;;;;17.58;13.57;;;;;;;;;;5005239;28;20410;-86
2022/11/08 18:46:07;;;;;;;17.83;14.00;;;;;;;;;;5013963;28;20475;-85
2022/11/08 18:48:34;;;;;;;16.20;14.02;;;;;;;;;;5021326;28;20403;-85
2022/11/08 18:51:01;;;;;;;15.68;13.60;;;;;;;;;;5025135;28;20425;-86
2022/11/08 18:53:27;;;;;;;16.43;13.70;;;;;;;;;;5015369;28;20478;-86
2022/11/08 18:55:53;;;;;;;19.48;14.95;;;;;;;;;;5016409;28;20405;-86
2022/11/08 18:58:19;;;;;;;16.88;15.07;;;;;;;;;;5020961;28;20875;-87
2022/11/08 19:00:45;;;;;;;16.53;14.00;;;;;;;;;;5023547;28;20386;-86
2022/11/08 19:03:11;;;;;;;11.80;8.70;;;;;;;;;;5004615;28;20924;-86
2022/11/08 19:05:37;;;;;;;15.83;12.63;;;;;;;;;;5013011;28;20464;-87
2022/11/08 19:08:03;;;;;;;18.98;13.18;;;;;;;;;;5029961;28;20405;-86
2022/11/08 19:10:29;;;;;;;14.15;11.77;;;;;;;;;;5017823;28;20874;-87
2022/11/08 19:12:55;;;;;;;13.38;11.77;;;;;;;;;;5013607;28;20396;-86
2022/11/08 19:15:22;;;;;;;13.52;11.48;;;;;;;;;;5013145;28;20813;-89
2022/11/08 19:17:52;;;;;;;16.17;12.20;;;;;;;;;;5013244;28;20738;-89
2022/11/08 19:20:19;;;;;;;17.92;13.00;;;;;;;;;;5009717;28;20738;-89
2022/11/08 19:22:45;;;;;;;14.85;11.90;;;;;;;;;;5013134;28;20384;-88
2022/11/08 19:25:11;;;;;;;16.60;12.97;;;;;;;;;;5013831;28;20424;-89
2022/11/08 19:27:37;;;;;;;13.82;12.35;;;;;;;;;;5033076;28;20429;-89
2022/11/08 19:30:04;;;;;;;14.23;11.88;;;;;;;;;;5026655;28;20389;-88
2022/11/08 19:32:31;;;;;;;15.45;12.32;;;;;;;;;;5026462;28;20401;-85
2022/11/08 19:34:57;;;;;;;12.90;11.60;;;;;;;;;;5034711;28;20428;-86
2022/11/08 19:37:23;;;;;;;12.63;11.35;;;;;;;;;;5025512;28;20401;-88
2022/11/08 19:39:49;;;;;;;13.93;11.03;;;;;;;;;;5019565;28;20515;-87
2022/11/08 19:42:16;;;;;;;11.30;10.18;;;;;;;;;;5015157;28;20468;-90
2022/11/08 19:44:42;;;;;;;11.27;10.18;;;;;;;;;;5018844;28;20533;-91
2022/11/08 19:47:08;;;;;;;14.23;11.05;;;;;;;;;;5012996;28;20396;-92
2022/11/08 19:49:35;;;;;;;11.70;10.60;;;;;;;;;;5013250;28;20403;-93